Time;durP1;ratioP1;P1;durP2;ratioP2;P2;SDS_P1;SDS_P2;PMS_P1;PMS_P2;Temp;Humidity;BMP_temperature;BMP_pressure;BME280_temperature;BME280_humidity;BME280_pressure;Samples;Min_cycle;Max_cycle;Signal;HPM_P1;HPM_P2
2022/12/25 00:02:34;;;;;;;1.67;1.58;;;10.90;68.80;;;9.62;67.81;101330.47;12255704;19;20022;-83
2022/12/25 00:06:36;;;;;;;2.10;1.90;;;10.90;68.60;;;9.37;67.92;101285.47;12254468;19;20074;-83
2022/12/25 00:10:38;;;;;;;1.58;1.48;;;10.90;68.60;;;9.63;67.92;101334.78;12250875;19;20022;-83
2022/12/25 00:14:40;;;;;;;2.65;1.77;;;10.90;68.40;;;9.55;67.84;101331.63;12254647;19;20015;-83
2022/12/25 00:18:42;;;;;;;1.27;1.23;;;10.80;68.10;;;9.51;67.92;101340.50;12252050;19;20015;-84
2022/12/25 00:22:43;;;;;;;1.52;1.08;;;10.80;68.00;;;9.50;67.83;101342.28;12254408;19;20006;-83
2022/12/25 00:26:45;;;;;;;3.13;1.35;;;10.80;67.90;;;9.29;67.99;101325.75;12254681;19;20015;-83
2022/12/25 00:30:47;;;;;;;1.55;1.45;;;10.70;67.70;;;9.39;67.81;101348.81;12251550;19;20024;-83
2022/12/25 00:34:49;;;;;;;1.75;1.30;;;10.60;67.50;;;9.13;67.72;101316.84;12250850;19;20426;-83
2022/12/25 00:38:51;;;;;;;1.08;1.08;;;10.60;67.50;;;9.04;67.72;101322.38;12248868;19;20015;-83
2022/12/25 00:42:52;;;;;;;1.30;1.20;;;10.50;67.30;;;9.16;67.67;101345.38;12251908;19;20015;-83
2022/12/25 00:46:54;;;;;;;1.55;1.45;;;10.50;67.10;;;9.22;67.67;101365.97;12250832;19;20022;-83
2022/12/25 00:51:00;;;;;;;1.20;1.10;;;10.40;66.90;;;9.11;67.54;101368.16;12248377;19;20022;-83
2022/12/25 00:55:03;;;;;;;1.50;1.40;;;10.40;66.80;;;9.04;67.54;101356.25;12250664;19;20473;-83
2022/12/25 00:59:05;;;;;;;1.52;1.42;;;10.30;66.80;;;9.02;67.56;101363.31;12249166;19;20477;-83
2022/12/25 01:03:07;;;;;;;1.60;1.50;;;10.20;66.60;;;8.95;67.38;101378.31;12251634;19;20029;-83
2022/12/25 01:07:09;;;;;;;2.20;2.00;;;10.20;66.60;;;8.84;67.53;101386.53;12249547;19;20011;-83
2022/12/25 01:11:11;;;;;;;2.05;1.85;;;10.10;66.50;;;8.76;67.53;101385.97;12247362;19;20006;-83
2022/12/25 01:15:13;;;;;;;2.42;1.73;;;10.00;66.50;;;8.77;67.52;101395.44;12250055;19;20015;-83
2022/12/25 01:19:15;;;;;;;2.67;1.92;;;10.00;66.70;;;8.71;67.41;101393.09;12247271;19;20011;-83
2022/12/25 01:23:17;;;;;;;2.55;1.95;;;9.90;66.60;;;8.72;67.37;101405.22;12249458;19;20029;-84
2022/12/25 01:27:19;;;;;;;2.03;1.88;;;9.90;66.50;;;8.47;67.35;101375.75;12250890;19;20014;-83
2022/12/25 01:31:23;;;;;;;2.05;1.85;;;9.80;66.30;;;8.34;67.25;101370.94;12246608;19;20033;-83
2022/12/25 01:35:25;;;;;;;1.80;1.70;;;9.80;66.30;;;8.45;67.33;101399.22;12249403;19;20039;-84
2022/12/25 01:39:27;;;;;;;2.55;1.50;;;9.70;66.10;;;8.35;67.37;101396.06;12246802;19;20611;-84
2022/12/25 01:43:32;;;;;;;2.42;1.70;;;9.70;66.10;;;8.40;67.20;101428.03;12250556;19;20357;-83
2022/12/25 01:47:34;;;;;;;1.75;1.65;;;9.60;66.10;;;8.15;67.43;101398.50;12248051;19;20477;-83
2022/12/25 01:51:48;;;;;;;1.92;1.83;;;9.60;66.90;;;8.28;67.09;101438.81;12244530;19;20085;-83
2022/12/25 01:55:57;;;;;;;1.80;1.70;;;9.50;66.90;;;8.24;67.16;101431.19;12246300;19;20035;-83
2022/12/25 02:00:00;;;;;;;1.92;1.83;;;9.50;66.70;;;8.15;67.19;101429.72;12244795;19;20018;-83
2022/12/25 02:04:16;;;;;;;3.35;2.00;;;9.40;65.80;;;8.16;67.12;101434.03;12243317;19;20013;-83
2022/12/25 02:08:20;;;;;;;3.22;1.83;;;9.30;65.70;;;8.06;67.33;101440.44;12246424;19;20023;-83
2022/12/25 02:12:29;;;;;;;2.17;1.98;;;9.30;65.80;;;7.92;67.08;101444.34;12239020;19;20015;-83
2022/12/25 02:16:34;;;;;;;2.25;2.05;;;9.20;65.80;;;7.96;67.27;101458.94;12245559;19;20031;-83
2022/12/25 02:20:55;;;;;;;4.30;1.98;;;9.30;66.10;;;7.67;67.34;101407.91;12242782;19;20014;-83
2022/12/25 02:25:42;;;;;;;2.35;2.15;;;9.10;66.20;;;7.88;67.09;101462.69;12245510;19;20353;-83
2022/12/25 02:30:07;;;;;;;5.55;1.98;;;9.10;66.10;;;7.80;67.25;101462.94;12244593;19;20045;-83
2022/12/25 02:34:19;;;;;;;2.63;2.00;;;9.00;65.90;;;7.75;67.31;101459.66;12245210;19;20018;-83
2022/12/25 02:38:36;;;;;;;1.73;1.63;;;8.90;65.90;;;7.65;67.30;101443.50;12242470;19;20552;-83
2022/12/25 03:18:42;;;;;;;2.05;1.70;;;8.40;65.70;;;7.11;67.18;101449.47;12242302;19;20011;-83
2022/12/25 03:27:06;;;;;;;2.15;1.90;;;8.30;65.80;;;7.09;67.16;101464.22;12243536;19;20010;-83
2022/12/25 03:31:35;;;;;;;3.13;2.22;;;8.30;65.80;;;6.97;67.03;101449.88;12239958;19;20014;-83
2022/12/25 03:36:08;;;;;;;2.92;1.63;;;8.30;65.60;;;7.02;67.03;101470.47;12252901;19;20497;-83
2022/12/25 04:38:21;;;;;;;3.20;2.90;;;7.80;64.10;;;6.34;66.68;101520.75;12249512;19;20022;-83
2022/12/25 04:42:23;;;;;;;3.58;2.03;;;7.70;63.30;;;6.20;66.81;101510.72;12251130;19;20015;-83
2022/12/25 04:46:25;;;;;;;2.45;2.25;;;7.50;63.10;;;5.95;66.82;101489.72;12248716;19;20018;-83
2022/12/25 04:50:26;;;;;;;2.17;1.80;;;7.50;63.40;;;6.13;67.00;101530.75;12249744;19;20735;-83
2022/12/25 04:54:28;;;;;;;3.08;2.25;;;7.40;63.90;;;6.14;67.03;101544.56;12249028;19;20039;-83
2022/12/25 04:58:31;;;;;;;2.13;1.90;;;7.40;64.30;;;6.05;66.86;101531.81;12248806;19;20461;-83
2022/12/25 05:02:33;;;;;;;3.42;2.33;;;7.30;64.30;;;5.92;66.93;101523.44;12250916;19;20019;-83
2022/12/25 05:06:35;;;;;;;3.42;1.88;;;7.50;64.50;;;5.89;66.91;101526.13;12252605;19;20074;-83
2022/12/25 05:10:39;;;;;;;2.67;1.88;;;7.20;64.50;;;5.99;66.88;101548.34;12248767;19;20018;-83
2022/12/25 05:14:41;;;;;;;1.98;1.75;;;7.20;64.50;;;5.92;67.03;101539.00;12249899;19;20018;-83
2022/12/25 05:18:43;;;;;;;1.83;1.70;;;7.40;64.60;;;5.92;66.92;101536.41;12248385;19;20354;-83
2022/12/25 05:22:45;;;;;;;2.05;1.75;;;7.10;64.40;;;5.90;67.12;101530.41;12250197;19;20039;-83
2022/12/25 05:26:47;;;;;;;2.03;1.90;;;7.10;64.50;;;5.79;66.93;101511.66;12251243;19;20051;-83
2022/12/25 05:30:49;;;;;;;2.35;1.70;;;7.10;64.00;;;5.74;66.93;101511.75;12247719;19;20026;-83
2022/12/25 05:34:50;;;;;;;3.53;1.60;;;7.10;63.90;;;5.79;66.78;101532.38;12248466;19;20025;-83
2022/12/25 05:38:52;;;;;;;2.53;1.92;;;7.00;63.90;;;5.63;66.78;101511.16;12248815;19;20132;-83
2022/12/25 05:42:54;;;;;;;3.25;2.20;;;7.00;64.10;;;5.58;66.94;101508.66;12247503;19;20504;-83
2022/12/25 05:46:56;;;;;;;3.30;2.65;;;7.00;64.00;;;5.54;66.83;101517.38;12250131;19;20002;-83
2022/12/25 05:51:01;;;;;;;2.55;1.73;;;6.90;63.50;;;5.34;66.77;101489.28;12245512;19;20014;-83
2022/12/25 05:55:04;;;;;;;3.08;1.60;;;7.20;63.60;;;5.51;66.70;101522.63;12248105;19;20014;-83
2022/12/25 05:59:06;;;;;;;1.92;1.70;;;6.80;63.00;;;5.42;66.79;101534.00;12243740;19;20018;-83
2022/12/25 06:03:08;;;;;;;2.63;2.10;;;7.00;63.10;;;5.13;66.49;101493.22;12247099;19;20045;-83
2022/12/25 06:07:09;;;;;;;2.28;2.00;;;6.70;62.70;;;5.30;66.63;101529.94;12246172;19;20457;-83
2022/12/25 06:11:13;;;;;;;2.15;1.95;;;6.60;62.60;;;5.20;66.54;101518.06;12242367;19;20006;-83
2022/12/25 06:15:15;;;;;;;3.17;1.80;;;6.50;62.80;;;5.20;66.60;101522.41;12245201;19;20017;-83
2022/12/25 06:19:19;;;;;;;4.25;2.05;;;6.50;63.20;;;4.94;66.79;101478.91;12242854;19;20018;-83
2022/12/25 06:23:20;;;;;;;4.43;2.20;;;6.40;63.60;;;5.15;66.85;101512.13;12247266;19;20006;-83
2022/12/25 06:27:22;;;;;;;2.20;2.00;;;6.40;63.90;;;5.15;66.74;101504.34;12244824;19;20424;-82
2022/12/25 06:31:24;;;;;;;2.90;2.40;;;6.70;64.10;;;4.83;66.64;101456.69;12242632;19;20017;-83
2022/12/25 06:35:26;;;;;;;3.20;2.08;;;6.40;63.90;;;5.06;66.87;101512.31;12245557;19;20014;-82
2022/12/25 06:39:29;;;;;;;2.53;2.33;;;6.40;64.00;;;5.04;66.72;101507.16;12243720;19;20367;-83
2022/12/25 06:43:30;;;;;;;2.38;2.17;;;6.40;64.30;;;5.11;66.76;101528.63;12244516;19;20399;-82
2022/12/25 06:47:32;;;;;;;2.60;2.40;;;6.40;64.40;;;5.06;66.77;101514.91;12245321;19;20018;-82
2022/12/25 06:51:34;;;;;;;2.85;2.42;;;6.60;64.70;;;4.96;66.96;101508.19;12241913;19;20025;-82
2022/12/25 06:55:36;;;;;;;2.38;2.13;;;6.40;64.40;;;4.97;66.90;101505.59;12244042;19;20025;-82
2022/12/25 06:59:38;;;;;;;4.28;2.58;;;6.30;64.30;;;4.72;66.95;101476.72;12240027;19;20018;-82
2022/12/25 07:03:42;;;;;;;2.63;2.42;;;6.40;64.40;;;4.89;66.79;101515.25;12253430;19;20023;-83
2022/12/25 07:07:44;;;;;;;2.03;1.85;;;6.50;64.30;;;4.93;66.94;101528.97;12248810;19;20010;-82
2022/12/25 07:11:46;;;;;;;2.08;1.90;;;6.40;64.20;;;4.74;66.77;101494.81;12252695;19;20039;-82
2022/12/25 07:16:02;;;;;;;2.20;2.03;;;6.30;64.10;;;4.96;66.95;101557.38;12263764;19;20471;-82
2022/12/25 07:20:05;;;;;;;2.83;2.30;;;6.30;64.30;;;4.96;67.01;101570.31;12249967;19;20015;-82
2022/12/25 07:24:07;;;;;;;2.03;1.80;;;6.40;64.50;;;4.95;67.02;101568.63;12256507;19;20011;-83
2022/12/25 07:28:09;;;;;;;2.15;1.95;;;6.30;64.40;;;4.73;66.96;101534.53;12255769;19;20031;-83
2022/12/25 07:32:11;;;;;;;1.80;1.70;;;6.50;64.70;;;4.68;66.92;101533.75;12255778;19;20023;-84
2022/12/25 07:36:14;;;;;;;2.28;2.08;;;6.30;64.70;;;4.85;67.10;101560.16;12255500;19;20052;-84
2022/12/25 07:40:16;;;;;;;2.20;2.00;;;6.30;64.70;;;4.85;67.06;101575.69;12252809;19;20461;-85
2022/12/25 07:44:18;;;;;;;1.58;1.48;;;6.30;64.50;;;4.92;66.86;101586.78;12254713;19;20041;-86
2022/12/25 07:48:20;;;;;;;2.00;1.80;;;6.30;64.30;;;4.90;66.82;101580.78;12254188;19;20802;-84
2022/12/25 07:52:22;;;;;;;1.80;1.70;;;6.30;64.10;;;4.86;66.79;101580.84;12254902;19;20006;-84
2022/12/25 07:56:24;;;;;;;2.72;1.77;;;6.30;64.00;;;4.85;66.95;101586.88;12252780;19;20021;-84
2022/12/25 08:00:30;;;;;;;2.03;1.83;;;6.20;63.90;;;4.84;67.02;101580.00;12250220;19;20369;-84
2022/12/25 08:04:31;;;;;;;2.42;2.22;;;6.40;64.30;;;4.44;66.81;101504.84;12254769;19;20039;-83
2022/12/25 08:08:35;;;;;;;2.22;2.03;;;6.20;64.30;;;4.85;66.98;101580.88;12253901;19;20010;-87
2022/12/25 08:12:36;;;;;;;1.70;1.60;;;6.20;64.40;;;4.56;66.83;101535.63;12252802;19;20014;-84
2022/12/25 08:16:40;;;;;;;2.08;1.73;;;6.20;64.50;;;4.83;67.00;101572.25;12251163;19;20010;-85
2022/12/25 08:20:42;;;;;;;2.50;1.90;;;6.20;64.60;;;4.69;66.93;101549.22;12248507;19;20014;-86
2022/12/25 08:24:44;;;;;;;1.70;1.58;;;6.20;64.60;;;4.56;67.05;101529.63;12252160;19;20011;-83
2022/12/25 08:28:47;;;;;;;1.40;1.30;;;6.20;64.80;;;4.73;67.14;101556.06;12251598;19;20016;-83
2022/12/25 08:32:49;;;;;;;2.22;1.85;;;6.20;65.00;;;4.87;66.89;101577.38;12253839;19;20353;-84
2022/12/25 08:36:51;;;;;;;1.40;1.30;;;6.20;65.10;;;4.73;67.11;101553.47;12253078;19;20006;-83
2022/12/25 08:40:52;;;;;;;1.63;1.52;;;6.20;65.00;;;4.87;67.14;101567.00;12250075;19;20031;-84
2022/12/25 08:44:54;;;;;;;2.05;1.48;;;6.20;64.90;;;4.69;66.99;101536.28;12253394;19;20006;-83
2022/12/25 08:48:56;;;;;;;1.60;1.50;;;6.50;65.30;;;4.91;67.20;101566.97;12252227;19;20082;-84
2022/12/25 08:52:58;;;;;;;1.63;1.50;;;6.50;65.50;;;4.66;67.11;101526.00;12253025;19;20014;-83
2022/12/25 08:57:00;;;;;;;1.90;1.70;;;6.30;65.40;;;4.80;66.92;101539.53;12249381;19;20027;-85
2022/12/25 09:01:02;;;;;;;1.40;1.30;;;6.30;65.40;;;4.85;66.86;101552.41;12247527;19;20011;-83
2022/12/25 09:05:04;;;;;;;1.88;1.70;;;6.30;65.20;;;4.71;66.88;101524.19;12250113;19;20330;-81
2022/12/25 09:09:06;;;;;;;3.15;1.25;;;6.30;65.20;;;4.82;67.15;101540.38;12250626;19;20022;-82
2022/12/25 09:13:08;;;;;;;1.35;1.25;;;6.30;65.30;;;4.73;67.40;101504.31;12248994;19;20030;-83
2022/12/25 09:17:10;;;;;;;1.52;1.42;;;6.30;65.60;;;4.80;67.13;101513.66;12248102;19;20017;-83
2022/12/25 09:21:14;;;;;;;1.50;1.40;;;6.40;65.90;;;4.83;67.15;101507.56;12246185;19;20018;-84
2022/12/25 09:25:16;;;;;;;1.23;1.23;;;6.30;66.00;;;4.70;67.35;101491.44;12248683;19;20022;-84
2022/12/25 09:29:18;;;;;;;1.20;1.10;;;6.30;66.20;;;4.57;67.32;101464.09;12248513;19;20468;-83
2022/12/25 09:33:21;;;;;;;0.93;0.93;;;6.40;66.20;;;4.95;67.37;101522.03;12245435;19;20014;-82
2022/12/25 09:37:23;;;;;;;1.02;1.02;;;6.40;66.20;;;4.90;67.17;101508.31;12247049;19;20026;-81
2022/12/25 09:41:39;;;;;;;3.65;1.27;;;6.40;66.20;;;4.97;67.21;101507.31;12245453;19;20027;-82
2022/12/25 09:45:42;;;;;;;1.05;1.05;;;6.40;66.20;;;5.01;67.39;101514.16;12248010;19;20489;-82
2022/12/25 09:50:10;;;;;;;3.22;1.38;;;6.40;66.30;;;4.93;67.42;101500.50;12245472;19;20011;-83
2022/12/25 09:54:48;;;;;;;1.10;1.10;;;6.40;66.50;;;5.00;67.11;101510.72;12246763;19;20037;-82
2022/12/25 09:58:50;;;;;;;1.45;1.35;;;6.70;67.30;;;5.04;67.53;101511.50;12245612;19;20002;-84
2022/12/25 10:03:36;;;;;;;1.65;1.55;;;6.60;66.90;;;5.16;67.34;101518.16;12246971;19;20074;-86
2022/12/25 10:07:53;;;;;;;5.85;1.33;;;6.60;67.10;;;4.88;67.43;101465.19;12247334;19;20011;-84
2022/12/25 10:12:29;;;;;;;0.93;0.93;;;6.80;67.50;;;5.12;67.48;101508.75;12246676;19;20505;-84
2022/12/25 10:16:37;;;;;;;;;;;6.60;67.30;;;5.26;67.36;101528.28;12246627;19;20048;-83
2022/12/25 10:20:56;;;;;;;0.88;0.88;;;6.70;67.50;;;5.25;67.38;101530.94;12245463;19;19922;-83
2022/12/25 10:25:00;;;;;;;1.17;1.10;;;6.70;67.30;;;5.05;67.64;101482.13;12245233;19;20081;-83
2022/12/25 10:29:20;;;;;;;5.50;1.48;;;6.80;67.50;;;5.39;67.65;101508.19;12245543;19;20019;-83
2022/12/25 10:33:22;;;;;;;1.17;1.10;;;6.90;67.90;;;5.37;67.63;101499.59;12245059;19;20024;-83
2022/12/25 10:37:24;;;;;;;1.48;1.35;;;6.90;67.90;;;5.50;67.38;101484.66;12244257;19;20002;-83
2022/12/25 10:42:09;;;;;;;1.05;1.02;;;6.90;68.00;;;5.55;67.51;101478.47;12240985;19;20014;-84
2022/12/25 10:46:14;;;;;;;1.27;1.25;;;7.00;68.20;;;5.57;67.56;101481.03;12252356;19;20759;-84
2022/12/25 10:50:22;;;;;;;1.20;1.17;;;7.20;68.20;;;5.57;67.74;101475.88;12248858;19;20019;-84
2022/12/25 10:54:34;;;;;;;1.27;1.25;;;7.30;68.50;;;5.61;67.61;101468.88;12247777;19;20408;-84
2022/12/25 10:58:36;;;;;;;1.20;1.20;;;7.30;68.50;;;5.72;67.98;101478.09;12247508;19;20497;-84
2022/12/25 11:02:39;;;;;;;1.30;1.20;;;7.20;68.40;;;5.53;67.64;101443.13;12250759;19;20006;-85
2022/12/25 11:06:42;;;;;;;1.50;1.25;;;7.20;68.40;;;5.54;67.71;101445.69;12246710;19;20018;-82
2022/12/25 11:11:04;;;;;;;1.45;1.35;;;7.50;68.50;;;5.87;67.62;101492.44;12239861;19;20021;-84
2022/12/25 11:15:35;;;;;;;1.48;1.38;;;7.30;68.20;;;5.90;67.84;101494.97;12243151;19;20011;-85
2022/12/25 11:19:36;;;;;;;1.30;1.20;;;7.30;68.20;;;5.95;67.64;101481.94;12239799;19;20082;-84
2022/12/25 11:23:48;;;;;;;1.52;1.42;;;7.40;68.30;;;5.93;67.80;101481.97;12244015;19;20457;-84
2022/12/25 11:28:19;;;;;;;1.67;1.58;;;7.50;68.50;;;5.98;67.61;101480.09;12242589;19;20018;-85
2022/12/25 11:32:29;;;;;;;5.43;1.52;;;7.50;68.70;;;6.13;nan;101480.63;12240460;19;20021;-84
2022/12/25 11:36:47;;;;;;;1.40;1.30;;;7.60;68.70;;;6.18;67.94;101469.28;12241368;19;20030;-84
2022/12/25 11:40:53;;;;;;;1.90;1.80;;;7.60;68.80;;;6.17;67.91;101472.72;12241837;19;20030;-85
2022/12/25 11:45:17;;;;;;;1.60;1.50;;;7.70;68.90;;;6.17;67.85;101475.31;12240955;19;20031;-84
2022/12/25 11:49:20;;;;;;;1.98;1.85;;;7.70;69.00;;;6.28;67.88;101462.09;12242384;19;20006;-85
2022/12/25 11:53:50;;;;;;;2.50;1.75;;;7.80;69.00;;;6.38;67.99;101434.19;12239444;19;20389;-85
2022/12/25 11:58:00;;;;;;;1.50;1.40;;;7.80;69.10;;;6.32;67.85;101400.59;12251130;19;20045;-85
2022/12/25 12:02:49;;;;;;;4.85;2.25;;;7.90;69.20;;;6.43;67.91;101386.47;12254299;19;20019;-85
2022/12/25 12:07:20;;;;;;;2.13;2.00;;;7.90;69.50;;;6.51;68.10;101372.41;12252661;19;20034;-84
2022/12/25 12:11:36;;;;;;;1.55;1.45;;;8.00;69.40;;;6.55;67.98;101355.88;12247573;19;20018;-85
2022/12/25 12:15:47;;;;;;;1.70;1.60;;;8.10;69.60;;;6.59;68.11;101360.97;12254579;19;20014;-84
2022/12/25 12:19:50;;;;;;;3.65;2.55;;;8.10;69.60;;;6.68;68.16;101374.56;12248190;19;20025;-84
2022/12/25 12:24:19;;;;;;;2.60;2.20;;;8.20;70.00;;;6.80;68.20;101375.03;12253941;19;20017;-85
2022/12/25 12:28:31;;;;;;;2.65;2.33;;;8.30;70.20;;;6.82;68.06;101367.22;12258172;19;20021;-86
2022/12/25 12:32:46;;;;;;;2.95;2.30;;;8.30;70.40;;;6.90;68.22;101360.06;12250235;19;20501;-84
2022/12/25 12:36:51;;;;;;;3.83;2.83;;;8.40;71.20;;;6.98;68.17;101339.91;12252352;19;20349;-84
2022/12/25 12:41:03;;;;;;;3.63;2.53;;;8.50;70.80;;;7.10;68.11;101341.25;12248171;19;20300;-84
2022/12/25 12:45:18;;;;;;;5.38;2.58;;;8.50;71.00;;;7.19;68.37;101327.16;12253756;19;20066;-84
2022/12/25 12:49:23;;;;;;;2.83;2.58;;;8.60;71.20;;;7.32;68.14;101354.47;12249071;19;20014;-84
2022/12/25 12:53:24;;;;;;;;;;;8.70;71.10;;;7.35;68.27;101356.13;12252677;19;20026;-84
2022/12/25 12:57:31;;;;;;;3.13;2.47;;;8.80;71.20;;;7.18;68.13;101296.88;12251908;19;19921;-83
2022/12/25 13:02:08;;;;;;;2.55;2.35;;;8.90;70.90;;;7.44;68.26;101335.88;12248713;19;20018;-83
2022/12/25 13:06:24;;;;;;;2.40;2.20;;;9.00;70.90;;;7.54;68.22;101342.47;12245214;19;20010;-84
2022/12/25 13:10:32;;;;;;;;;;;9.00;70.80;;;7.55;68.37;101338.13;12247884;19;20027;-83
2022/12/25 13:14:36;;;;;;;3.85;2.33;;;9.10;70.90;;;7.58;68.33;101327.59;12252635;19;19918;-83
2022/12/25 13:18:39;;;;;;;5.03;2.33;;;9.30;70.60;;;7.63;68.28;101333.50;12248471;19;20022;-83
2022/12/25 13:22:40;;;;;;;2.75;2.47;;;9.20;70.60;;;7.58;68.31;101311.19;12251997;19;20018;-83
2022/12/25 13:26:42;;;;;;;3.25;2.40;;;9.20;70.60;;;7.81;68.24;101333.81;12253060;19;20022;-84
2022/12/25 13:30:45;;;;;;;3.42;3.13;;;9.30;70.70;;;7.85;68.41;101325.84;12250757;19;20014;-84
2022/12/25 13:34:50;;;;;;;3.63;2.40;;;9.30;70.90;;;7.43;68.20;101252.78;12250528;19;20006;-84
2022/12/25 13:38:56;;;;;;;3.85;2.53;;;9.40;70.90;;;7.95;68.39;101327.22;12249028;19;20488;-84
2022/12/25 13:43:00;;;;;;;2.88;2.33;;;9.40;70.80;;;7.86;68.38;101305.91;12251382;19;20014;-84
2022/12/25 13:47:33;;;;;;;3.40;2.78;;;9.50;70.90;;;8.06;68.37;101329.44;12251559;19;20019;-84
2022/12/25 13:51:35;;;;;;;2.92;2.20;;;9.50;70.80;;;8.07;68.23;101302.53;12246644;19;20007;-84
2022/12/25 13:55:37;;;;;;;2.72;2.50;;;9.50;70.70;;;7.86;68.24;101256.50;12251930;19;20399;-83
2022/12/25 13:59:42;;;;;;;2.97;2.63;;;9.60;70.70;;;8.16;68.28;101289.22;12246614;19;20040;-83
2022/12/25 14:03:46;;;;;;;4.47;3.20;;;9.60;70.70;;;7.87;68.40;101229.59;12250142;19;20519;-83
2022/12/25 14:07:52;;;;;;;3.83;2.65;;;9.60;70.80;;;8.12;68.25;101266.78;12251980;19;20006;-84
2022/12/25 14:11:54;;;;;;;5.25;2.70;;;9.60;70.80;;;8.15;68.38;101258.88;12248230;19;20010;-83
2022/12/25 14:15:57;;;;;;;4.38;2.95;;;9.60;70.80;;;8.21;68.35;101260.44;12249227;19;20008;-84
2022/12/25 14:20:00;;;;;;;4.78;2.90;;;9.60;70.80;;;8.26;68.44;101257.63;12244130;19;20353;-84
2022/12/25 14:24:01;;;;;;;4.32;3.05;;;9.70;71.00;;;8.27;68.47;101273.22;12248866;19;20061;-84
2022/12/25 14:28:15;;;;;;;4.35;3.13;;;9.70;70.90;;;8.28;68.30;101284.47;12248074;19;20034;-83
2022/12/25 14:32:24;;;;;;;3.28;2.88;;;9.70;71.00;;;8.28;68.38;101279.25;12248508;19;20035;-84
2022/12/25 14:36:27;;;;;;;3.67;3.22;;;9.70;71.00;;;8.31;68.41;101279.13;12247028;19;20026;-84
2022/12/25 14:40:31;;;;;;;3.83;2.90;;;9.90;71.00;;;8.37;68.43;101290.19;12244675;19;20014;-84
2022/12/25 14:44:39;;;;;;;7.28;3.00;;;9.80;71.00;;;8.29;68.51;101260.13;12247114;19;20006;-84
2022/12/25 14:48:41;;;;;;;5.13;3.00;;;9.80;71.00;;;8.38;68.50;101260.66;12247792;19;20023;-84
2022/12/25 14:52:45;;;;;;;4.72;3.25;;;9.80;71.00;;;8.36;68.20;101241.63;12247058;19;20014;-83
2022/12/25 14:56:50;;;;;;;2.92;2.55;;;9.80;71.00;;;8.40;68.23;101230.25;12245926;19;20365;-84
2022/12/25 15:01:03;;;;;;;3.58;2.72;;;9.90;70.90;;;8.38;68.33;101225.97;12243135;19;20013;-84
2022/12/25 15:05:28;;;;;;;2.75;2.55;;;9.80;70.80;;;8.30;68.35;101189.00;12247070;19;20439;-83
2022/12/25 15:09:30;;;;;;;2.78;2.58;;;9.90;70.90;;;8.53;68.44;101211.53;12244472;19;20416;-84
2022/12/25 15:13:33;;;;;;;5.13;2.58;;;9.90;70.90;;;8.54;68.33;101228.88;12246637;19;20014;-83
2022/12/25 15:17:36;;;;;;;7.55;3.60;;;9.90;70.80;;;8.48;68.26;101205.66;12248478;19;20480;-84
2022/12/25 15:21:38;;;;;;;4.68;3.50;;;9.90;70.80;;;8.60;68.30;101215.63;12244015;19;20477;-83
2022/12/25 15:25:40;;;;;;;5.90;3.30;;;10.10;71.30;;;8.45;68.39;101164.16;12247735;19;20461;-83
2022/12/25 15:29:42;;;;;;;4.60;3.03;;;10.00;71.20;;;8.54;68.33;101179.41;12246518;19;20011;-83
2022/12/25 15:33:43;;;;;;;4.25;3.60;;;9.90;71.30;;;8.65;68.39;101203.25;12258416;19;20011;-84
2022/12/25 15:37:46;;;;;;;4.95;3.72;;;10.00;71.50;;;8.74;68.28;101208.09;12259953;19;20010;-82
2022/12/25 15:46:09;;;;;;;3.58;2.70;;;10.00;71.60;;;8.79;68.28;101216.56;12255901;19;20477;-83
2022/12/25 15:50:11;;;;;;;5.35;3.63;;;10.10;71.60;;;8.83;68.40;101212.94;12252731;19;20484;-84
2022/12/25 15:54:12;;;;;;;5.40;2.88;;;10.10;71.70;;;8.84;68.32;101195.56;12258843;19;20025;-83
2022/12/25 15:58:14;;;;;;;5.03;3.10;;;10.10;71.60;;;8.79;68.59;101164.50;12251293;19;20371;-84
2022/12/25 16:02:19;;;;;;;6.22;2.80;;;10.20;71.60;;;8.90;68.51;101177.06;12256808;19;20017;-84
2022/12/25 16:06:20;;;;;;;5.07;2.75;;;10.20;71.50;;;8.86;68.50;101165.09;12255908;19;20019;-83
2022/12/25 16:10:22;;;;;;;4.35;3.17;;;10.30;71.40;;;8.72;68.46;101142.25;12253006;19;20014;-83
2022/12/25 16:14:23;;;;;;;4.32;3.15;;;10.40;71.50;;;8.92;68.39;101175.25;12255938;19;20018;-84
2022/12/25 16:18:25;;;;;;;4.40;2.97;;;10.30;71.30;;;8.85;68.48;101150.38;12251779;19;20413;-83
2022/12/25 16:22:27;;;;;;;3.80;2.95;;;10.30;71.20;;;8.99;68.49;101139.38;12254153;19;20073;-83
2022/12/25 16:26:29;;;;;;;4.75;2.67;;;10.40;71.30;;;8.96;68.51;101124.72;12256093;19;20030;-84
2022/12/25 16:30:31;;;;;;;4.03;2.60;;;10.30;71.10;;;8.81;68.42;101105.41;12253634;19;20006;-83
2022/12/25 16:34:33;;;;;;;3.20;2.72;;;10.40;71.20;;;9.03;68.37;101144.41;12255042;19;20019;-83
2022/12/25 16:38:35;;;;;;;3.83;2.58;;;10.40;71.20;;;8.85;68.28;101106.94;12250732;19;20015;-83
2022/12/25 16:42:37;;;;;;;2.90;2.50;;;10.40;71.30;;;9.11;68.57;101148.47;12253402;19;20019;-83
2022/12/25 16:46:39;;;;;;;3.30;2.70;;;10.40;71.30;;;9.14;68.50;101138.75;12253190;19;20010;-83
2022/12/25 16:50:41;;;;;;;4.40;2.67;;;10.40;71.40;;;9.15;68.56;101134.38;12248750;19;20038;-82
2022/12/25 16:54:45;;;;;;;3.53;3.22;;;10.40;71.50;;;9.01;68.54;101095.88;12253490;19;20066;-83
2022/12/25 16:58:47;;;;;;;3.47;2.72;;;10.40;71.30;;;9.18;68.39;101109.06;12250689;19;20469;-84
2022/12/25 17:02:49;;;;;;;5.47;2.78;;;10.50;71.40;;;9.19;68.36;101105.53;12251867;19;20027;-83
2022/12/25 17:06:51;;;;;;;7.85;2.95;;;10.50;71.40;;;9.14;68.42;101086.63;12252490;19;20018;-84
2022/12/25 17:10:52;;;;;;;7.22;3.25;;;10.50;71.50;;;9.18;68.34;101079.53;12250003;19;20014;-83
2022/12/25 17:14:54;;;;;;;5.35;3.28;;;10.50;71.60;;;9.23;68.35;101051.50;12254236;19;20010;-82
2022/12/25 17:19:03;;;;;;;3.80;2.65;;;10.50;71.60;;;9.19;68.40;101044.75;12250702;19;20726;-83
2022/12/25 17:23:05;;;;;;;4.35;3.10;;;10.50;71.80;;;9.26;68.47;101049.63;12251995;19;20011;-82
2022/12/25 17:27:08;;;;;;;4.13;2.97;;;10.50;72.00;;;9.24;68.63;101038.41;12252213;19;20007;-83
2022/12/25 17:31:12;;;;;;;4.65;3.00;;;10.60;72.00;;;9.18;68.41;101015.25;12245870;19;20035;-84
2022/12/25 17:35:14;;;;;;;4.28;3.08;;;10.60;72.00;;;9.24;68.54;101025.41;12250616;19;20501;-83
2022/12/25 17:39:15;;;;;;;5.05;3.20;;;10.60;72.20;;;9.36;68.57;101026.59;12248882;19;20057;-84
2022/12/25 17:43:17;;;;;;;4.63;3.05;;;10.60;72.20;;;9.41;68.46;101023.78;12253204;19;20018;-83
2022/12/25 17:47:20;;;;;;;5.18;3.50;;;10.70;72.30;;;9.40;68.45;101011.69;12250509;19;20013;-84
2022/12/25 17:51:25;;;;;;;4.13;3.20;;;10.70;72.50;;;9.40;68.55;101015.13;12246673;19;20086;-83
2022/12/25 17:55:32;;;;;;;4.22;2.90;;;10.70;73.10;;;9.42;68.60;101010.66;12249505;19;20082;-83
2022/12/25 17:59:34;;;;;;;5.57;2.95;;;10.80;72.50;;;9.41;68.46;100997.72;12247373;19;20086;-84
2022/12/25 18:03:36;;;;;;;3.35;2.80;;;10.90;72.60;;;9.46;68.45;100988.78;12248174;19;20010;-84
2022/12/25 18:07:38;;;;;;;3.85;3.00;;;10.90;72.60;;;9.45;68.67;100962.75;12248477;19;20507;-84
2022/12/25 18:11:41;;;;;;;8.50;3.17;;;10.90;72.50;;;9.59;68.62;100983.00;12243226;19;20019;-83
2022/12/25 18:15:43;;;;;;;4.93;3.40;;;10.90;72.50;;;9.61;68.73;100963.72;12247599;19;20007;-84
2022/12/25 18:19:44;;;;;;;5.07;3.20;;;10.90;72.70;;;9.66;68.59;100953.94;12246802;19;20035;-84
2022/12/25 18:23:46;;;;;;;3.78;3.22;;;11.10;72.70;;;9.62;68.70;100935.91;12250309;19;20010;-85
2022/12/25 18:27:48;;;;;;;3.33;3.03;;;10.90;72.50;;;9.61;68.66;100927.22;12246669;19;20010;-84
2022/12/25 18:31:50;;;;;;;4.07;3.20;;;11.00;72.60;;;9.67;68.67;100950.41;12248455;19;20086;-84
2022/12/25 18:36:00;;;;;;;6.43;3.20;;;11.00;72.70;;;9.65;68.63;100939.22;12248210;19;20476;-84
2022/12/25 18:40:03;;;;;;;3.53;3.13;;;11.00;73.30;;;9.71;68.47;100936.31;12246235;19;20389;-84
2022/12/25 18:44:05;;;;;;;3.45;3.15;;;11.00;72.70;;;9.82;68.70;100947.97;12246950;19;20020;-84
2022/12/25 18:48:08;;;;;;;4.05;3.17;;;11.10;72.70;;;9.81;68.56;100941.09;12247866;19;20023;-84
2022/12/25 18:52:10;;;;;;;4.82;3.30;;;11.10;73.30;;;9.86;68.61;100918.25;12247764;19;20037;-84
2022/12/25 18:56:16;;;;;;;4.90;3.38;;;11.10;72.70;;;9.78;68.64;100899.50;12246066;19;20010;-84